sensor_id;sensor_type;location;lat;lon;timestamp;pressure;altitude;pressure_sealevel;temperature;humidity
63395;BME280;49531;-34.520;150.798;2024-01-30T00:01:59;100578.69;;;27.42;57.59
63395;BME280;49531;-34.520;150.798;2024-01-30T00:04:26;100575.66;;;27.44;57.73
63395;BME280;49531;-34.520;150.798;2024-01-30T00:06:53;100579.69;;;27.46;57.38
63395;BME280;49531;-34.520;150.798;2024-01-30T00:09:20;100579.88;;;27.50;57.48
63395;BME280;49531;-34.520;150.798;2024-01-30T00:11:47;100587.81;;;27.51;57.40
63395;BME280;49531;-34.520;150.798;2024-01-30T00:14:14;100591.25;;;27.57;57.27
63395;BME280;49531;-34.520;150.798;2024-01-30T00:16:42;100580.81;;;27.59;57.36
63395;BME280;49531;-34.520;150.798;2024-01-30T00:19:09;100574.66;;;27.62;57.33
63395;BME280;49531;-34.520;150.798;2024-01-30T00:21:36;100583.91;;;27.66;57.04
63395;BME280;49531;-34.520;150.798;2024-01-30T00:24:06;100580.66;;;27.64;57.08
63395;BME280;49531;-34.520;150.798;2024-01-30T00:26:33;100577.28;;;27.67;56.88
63395;BME280;49531;-34.520;150.798;2024-01-30T00:29:00;100577.59;;;27.66;56.39
63395;BME280;49531;-34.520;150.798;2024-01-30T00:31:27;100573.91;;;27.70;56.19
63395;BME280;49531;-34.520;150.798;2024-01-30T00:33:54;100572.78;;;27.71;56.05
63395;BME280;49531;-34.520;150.798;2024-01-30T00:36:22;100576.16;;;27.68;56.11
63395;BME280;49531;-34.520;150.798;2024-01-30T00:38:49;100572.28;;;27.69;55.95
63395;BME280;49531;-34.520;150.798;2024-01-30T00:41:18;100570.25;;;27.75;56.19
63395;BME280;49531;-34.520;150.798;2024-01-30T00:43:45;100573.78;;;27.75;56.28
63395;BME280;49531;-34.520;150.798;2024-01-30T00:46:15;100567.81;;;27.73;55.90
63395;BME280;49531;-34.520;150.798;2024-01-30T00:48:42;100582.03;;;27.75;56.01
63395;BME280;49531;-34.520;150.798;2024-01-30T00:51:10;100586.84;;;27.70;55.60
63395;BME280;49531;-34.520;150.798;2024-01-30T00:53:37;100586.22;;;27.73;55.48
63395;BME280;49531;-34.520;150.798;2024-01-30T00:56:04;100591.88;;;27.76;54.91
63395;BME280;49531;-34.520;150.798;2024-01-30T00:58:34;100584.91;;;27.70;55.07
63395;BME280;49531;-34.520;150.798;2024-01-30T01:01:01;100588.16;;;27.72;55.15
63395;BME280;49531;-34.520;150.798;2024-01-30T01:03:28;100592.50;;;27.73;55.39
63395;BME280;49531;-34.520;150.798;2024-01-30T01:05:56;100580.41;;;27.74;55.09
63395;BME280;49531;-34.520;150.798;2024-01-30T01:08:23;100588.53;;;27.79;55.42
63395;BME280;49531;-34.520;150.798;2024-01-30T01:10:50;100582.72;;;27.81;55.14
63395;BME280;49531;-34.520;150.798;2024-01-30T01:13:17;100585.28;;;27.77;55.02
63395;BME280;49531;-34.520;150.798;2024-01-30T01:15:44;100581.53;;;27.73;55.21
63395;BME280;49531;-34.520;150.798;2024-01-30T01:18:11;100581.91;;;27.80;55.44
63395;BME280;49531;-34.520;150.798;2024-01-30T01:20:38;100584.03;;;27.83;55.34
63395;BME280;49531;-34.520;150.798;2024-01-30T01:23:05;100571.13;;;27.84;55.45
63395;BME280;49531;-34.520;150.798;2024-01-30T01:25:32;100574.34;;;27.86;55.52
63395;BME280;49531;-34.520;150.798;2024-01-30T01:27:59;100565.63;;;27.84;55.49
63395;BME280;49531;-34.520;150.798;2024-01-30T01:30:27;100562.25;;;27.87;55.51
63395;BME280;49531;-34.520;150.798;2024-01-30T01:32:55;100554.50;;;27.89;55.64
63395;BME280;49531;-34.520;150.798;2024-01-30T01:35:24;100563.94;;;27.97;55.67
63395;BME280;49531;-34.520;150.798;2024-01-30T01:37:52;100555.31;;;27.89;55.76
63395;BME280;49531;-34.520;150.798;2024-01-30T01:40:26;100550.66;;;27.90;55.70
63395;BME280;49531;-34.520;150.798;2024-01-30T01:42:54;100543.91;;;27.96;55.82
63395;BME280;49531;-34.520;150.798;2024-01-30T01:45:22;100547.94;;;27.99;55.78
63395;BME280;49531;-34.520;150.798;2024-01-30T01:47:52;100541.97;;;28.05;55.67
63395;BME280;49531;-34.520;150.798;2024-01-30T01:50:20;100531.81;;;28.06;55.81
63395;BME280;49531;-34.520;150.798;2024-01-30T01:52:48;100533.44;;;28.07;55.82
63395;BME280;49531;-34.520;150.798;2024-01-30T01:55:17;100538.09;;;28.06;55.77
63395;BME280;49531;-34.520;150.798;2024-01-30T01:57:48;100535.06;;;28.08;55.64
63395;BME280;49531;-34.520;150.798;2024-01-30T02:00:15;100538.28;;;28.10;55.85
63395;BME280;49531;-34.520;150.798;2024-01-30T02:02:44;100524.56;;;28.10;55.91
63395;BME280;49531;-34.520;150.798;2024-01-30T02:05:12;100535.41;;;28.15;55.67
63395;BME280;49531;-34.520;150.798;2024-01-30T02:07:39;100531.53;;;28.16;55.55
63395;BME280;49531;-34.520;150.798;2024-01-30T02:10:08;100516.19;;;28.15;55.77
63395;BME280;49531;-34.520;150.798;2024-01-30T02:12:36;100525.41;;;28.19;55.52
63395;BME280;49531;-34.520;150.798;2024-01-30T02:15:03;100523.78;;;28.18;55.56
63395;BME280;49531;-34.520;150.798;2024-01-30T02:17:31;100514.94;;;28.21;55.55
63395;BME280;49531;-34.520;150.798;2024-01-30T02:19:59;100513.00;;;28.21;55.55
63395;BME280;49531;-34.520;150.798;2024-01-30T02:22:26;100512.88;;;28.27;55.48
63395;BME280;49531;-34.520;150.798;2024-01-30T02:24:53;100516.13;;;28.29;55.39
63395;BME280;49531;-34.520;150.798;2024-01-30T02:27:20;100517.41;;;28.31;55.55
63395;BME280;49531;-34.520;150.798;2024-01-30T02:29:47;100508.19;;;28.27;55.74
63395;BME280;49531;-34.520;150.798;2024-01-30T02:32:14;100507.56;;;28.30;55.47
63395;BME280;49531;-34.520;150.798;2024-01-30T02:34:41;100508.06;;;28.32;55.67
63395;BME280;49531;-34.520;150.798;2024-01-30T02:37:08;100504.34;;;28.37;55.73
63395;BME280;49531;-34.520;150.798;2024-01-30T02:39:36;100498.19;;;28.40;55.56
63395;BME280;49531;-34.520;150.798;2024-01-30T02:42:03;100500.31;;;28.43;55.40
63395;BME280;49531;-34.520;150.798;2024-01-30T02:44:30;100503.84;;;28.43;55.25
63395;BME280;49531;-34.520;150.798;2024-01-30T02:46:57;100494.50;;;28.44;55.37
63395;BME280;49531;-34.520;150.798;2024-01-30T02:49:24;100489.81;;;28.45;55.55
63395;BME280;49531;-34.520;150.798;2024-01-30T02:51:53;100494.97;;;28.46;55.35
63395;BME280;49531;-34.520;150.798;2024-01-30T02:54:23;100495.47;;;28.48;55.47
63395;BME280;49531;-34.520;150.798;2024-01-30T02:56:50;100486.91;;;28.50;55.52
63395;BME280;49531;-34.520;150.798;2024-01-30T02:59:17;100486.59;;;28.51;55.59
63395;BME280;49531;-34.520;150.798;2024-01-30T03:01:45;100491.44;;;28.54;55.48
63395;BME280;49531;-34.520;150.798;2024-01-30T03:04:12;100492.56;;;28.53;55.54
63395;BME280;49531;-34.520;150.798;2024-01-30T03:06:44;100489.19;;;28.57;55.30
63395;BME280;49531;-34.520;150.798;2024-01-30T03:09:11;100478.69;;;28.59;55.40
63395;BME280;49531;-34.520;150.798;2024-01-30T03:11:39;100485.81;;;28.60;55.36
63395;BME280;49531;-34.520;150.798;2024-01-30T03:14:06;100478.69;;;28.59;55.44
63395;BME280;49531;-34.520;150.798;2024-01-30T03:16:34;100470.94;;;28.61;55.36
63395;BME280;49531;-34.520;150.798;2024-01-30T03:19:01;100479.34;;;28.64;55.47
63395;BME280;49531;-34.520;150.798;2024-01-30T03:21:30;100476.91;;;28.63;55.43
63395;BME280;49531;-34.520;150.798;2024-01-30T03:23:57;100471.91;;;28.65;55.30
63395;BME280;49531;-34.520;150.798;2024-01-30T03:26:24;100474.00;;;28.68;55.20
63395;BME280;49531;-34.520;150.798;2024-01-30T03:28:51;100463.03;;;28.68;55.37
63395;BME280;49531;-34.520;150.798;2024-01-30T03:31:18;100464.63;;;28.69;55.15
63395;BME280;49531;-34.520;150.798;2024-01-30T03:33:45;100472.88;;;28.69;55.23
63395;BME280;49531;-34.520;150.798;2024-01-30T03:36:12;100463.50;;;28.70;55.30
63395;BME280;49531;-34.520;150.798;2024-01-30T03:38:39;100454.13;;;28.71;54.97
63395;BME280;49531;-34.520;150.798;2024-01-30T03:41:08;100455.75;;;28.72;54.99
63395;BME280;49531;-34.520;150.798;2024-01-30T03:43:36;100462.53;;;28.66;54.75
63395;BME280;49531;-34.520;150.798;2024-01-30T03:46:04;100448.28;;;28.55;54.59
63395;BME280;49531;-34.520;150.798;2024-01-30T03:48:31;100461.06;;;28.51;55.09
63395;BME280;49531;-34.520;150.798;2024-01-30T03:50:58;100449.25;;;28.50;55.28
63395;BME280;49531;-34.520;150.798;2024-01-30T03:53:25;100455.22;;;28.44;55.49
63395;BME280;49531;-34.520;150.798;2024-01-30T03:55:52;100448.09;;;28.43;55.35
63395;BME280;49531;-34.520;150.798;2024-01-30T03:58:19;100444.84;;;28.41;55.23
63395;BME280;49531;-34.520;150.798;2024-01-30T04:00:46;100442.13;;;28.32;55.52
63395;BME280;49531;-34.520;150.798;2024-01-30T04:03:15;100437.13;;;28.34;55.70
63395;BME280;49531;-34.520;150.798;2024-01-30T04:05:42;100430.97;;;28.37;55.94
63395;BME280;49531;-34.520;150.798;2024-01-30T04:08:10;100427.59;;;28.49;55.47
63395;BME280;49531;-34.520;150.798;2024-01-30T04:10:37;100427.41;;;28.45;55.55
63395;BME280;49531;-34.520;150.798;2024-01-30T04:13:04;100418.38;;;28.45;55.85
63395;BME280;49531;-34.520;150.798;2024-01-30T04:15:31;100424.19;;;28.52;55.68
63395;BME280;49531;-34.520;150.798;2024-01-30T04:17:59;100425.50;;;28.54;55.37
63395;BME280;49531;-34.520;150.798;2024-01-30T04:20:26;100422.59;;;28.60;55.33
63395;BME280;49531;-34.520;150.798;2024-01-30T04:22:53;100413.69;;;28.63;55.00
63395;BME280;49531;-34.520;150.798;2024-01-30T04:25:20;100420.00;;;28.63;54.97
63395;BME280;49531;-34.520;150.798;2024-01-30T04:27:47;100409.97;;;28.59;55.05
63395;BME280;49531;-34.520;150.798;2024-01-30T04:30:15;100405.44;;;28.54;54.93
63395;BME280;49531;-34.520;150.798;2024-01-30T04:32:43;100414.34;;;28.60;55.13
63395;BME280;49531;-34.520;150.798;2024-01-30T04:35:10;100411.91;;;28.58;54.70
63395;BME280;49531;-34.520;150.798;2024-01-30T04:37:37;100406.25;;;28.54;54.50
63395;BME280;49531;-34.520;150.798;2024-01-30T04:40:05;100404.31;;;28.46;55.18
63395;BME280;49531;-34.520;150.798;2024-01-30T04:42:32;100391.69;;;28.45;55.20
63395;BME280;49531;-34.520;150.798;2024-01-30T04:44:59;100395.75;;;28.48;55.06
63395;BME280;49531;-34.520;150.798;2024-01-30T04:47:26;100395.25;;;28.54;55.03
63395;BME280;49531;-34.520;150.798;2024-01-30T04:49:53;100390.91;;;28.53;55.25
63395;BME280;49531;-34.520;150.798;2024-01-30T04:52:20;100393.97;;;28.61;55.14
63395;BME280;49531;-34.520;150.798;2024-01-30T04:54:47;100390.59;;;28.64;54.70
63395;BME280;49531;-34.520;150.798;2024-01-30T04:57:14;100386.06;;;28.59;54.75
63395;BME280;49531;-34.520;150.798;2024-01-30T04:59:41;100385.72;;;28.52;55.08
63395;BME280;49531;-34.520;150.798;2024-01-30T05:02:08;100391.88;;;28.49;55.19
63395;BME280;49531;-34.520;150.798;2024-01-30T05:04:36;100386.38;;;28.49;54.72
63395;BME280;49531;-34.520;150.798;2024-01-30T05:07:03;100374.41;;;28.45;55.10
63395;BME280;49531;-34.520;150.798;2024-01-30T05:09:30;100379.25;;;28.48;55.19
63395;BME280;49531;-34.520;150.798;2024-01-30T05:11:57;100371.50;;;28.50;55.18
63395;BME280;49531;-34.520;150.798;2024-01-30T05:14:24;100365.34;;;28.44;54.67
63395;BME280;49531;-34.520;150.798;2024-01-30T05:16:51;100357.63;;;28.38;55.08
63395;BME280;49531;-34.520;150.798;2024-01-30T05:19:18;100356.31;;;28.35;55.15
63395;BME280;49531;-34.520;150.798;2024-01-30T05:21:46;100360.50;;;28.41;54.88
63395;BME280;49531;-34.520;150.798;2024-01-30T05:24:13;100360.50;;;28.41;54.86
63395;BME280;49531;-34.520;150.798;2024-01-30T05:26:40;100353.06;;;28.42;55.17
63395;BME280;49531;-34.520;150.798;2024-01-30T05:29:08;100355.50;;;28.43;55.09
63395;BME280;49531;-34.520;150.798;2024-01-30T05:31:35;100360.34;;;28.46;54.94
63395;BME280;49531;-34.520;150.798;2024-01-30T05:34:02;100361.50;;;28.37;55.09
63395;BME280;49531;-34.520;150.798;2024-01-30T05:36:29;100365.06;;;28.37;55.19
63395;BME280;49531;-34.520;150.798;2024-01-30T05:38:56;100362.13;;;28.34;55.64
63395;BME280;49531;-34.520;150.798;2024-01-30T05:41:23;100361.50;;;28.37;55.50
63395;BME280;49531;-34.520;150.798;2024-01-30T05:43:51;100363.75;;;28.35;55.20
63395;BME280;49531;-34.520;150.798;2024-01-30T05:46:18;100361.63;;;28.40;55.19
63395;BME280;49531;-34.520;150.798;2024-01-30T05:48:45;100358.09;;;28.31;55.38
63395;BME280;49531;-34.520;150.798;2024-01-30T05:51:12;100359.88;;;28.27;55.05
63395;BME280;49531;-34.520;150.798;2024-01-30T05:53:39;100355.03;;;28.33;54.91
63395;BME280;49531;-34.520;150.798;2024-01-30T05:56:06;100349.84;;;28.31;55.31
63395;BME280;49531;-34.520;150.798;2024-01-30T05:58:34;100354.53;;;28.31;55.35
63395;BME280;49531;-34.520;150.798;2024-01-30T06:01:01;100357.13;;;28.27;55.46
63395;BME280;49531;-34.520;150.798;2024-01-30T06:03:28;100356.16;;;28.23;55.71
63395;BME280;49531;-34.520;150.798;2024-01-30T06:05:55;100345.50;;;28.30;55.50
63395;BME280;49531;-34.520;150.798;2024-01-30T06:08:22;100344.84;;;28.33;55.29
63395;BME280;49531;-34.520;150.798;2024-01-30T06:10:49;100350.84;;;28.35;54.83
63395;BME280;49531;-34.520;150.798;2024-01-30T06:13:16;100350.97;;;28.30;54.89
63395;BME280;49531;-34.520;150.798;2024-01-30T06:15:43;100344.69;;;28.38;54.67
63395;BME280;49531;-34.520;150.798;2024-01-30T06:18:10;100344.69;;;28.30;54.99
63395;BME280;49531;-34.520;150.798;2024-01-30T06:20:37;100341.59;;;28.23;55.26
63395;BME280;49531;-34.520;150.798;2024-01-30T06:23:04;100351.25;;;28.20;55.14
63395;BME280;49531;-34.520;150.798;2024-01-30T06:25:35;100343.53;;;28.22;55.08
63395;BME280;49531;-34.520;150.798;2024-01-30T06:28:02;100349.03;;;28.22;55.34
63395;BME280;49531;-34.520;150.798;2024-01-30T06:30:29;100346.41;;;28.17;55.49
63395;BME280;49531;-34.520;150.798;2024-01-30T06:32:56;100359.66;;;28.15;55.39
63395;BME280;49531;-34.520;150.798;2024-01-30T06:35:23;100356.25;;;28.09;55.54
63395;BME280;49531;-34.520;150.798;2024-01-30T06:37:51;100356.25;;;28.09;55.72
63395;BME280;49531;-34.520;150.798;2024-01-30T06:40:19;100354.00;;;28.11;55.41
63395;BME280;49531;-34.520;150.798;2024-01-30T06:42:46;100359.94;;;28.05;55.67
63395;BME280;49531;-34.520;150.798;2024-01-30T06:45:13;100353.97;;;28.03;55.77
63395;BME280;49531;-34.520;150.798;2024-01-30T06:47:41;100363.81;;;28.04;55.78
63395;BME280;49531;-34.520;150.798;2024-01-30T06:50:08;100368.69;;;27.98;55.93
63395;BME280;49531;-34.520;150.798;2024-01-30T06:52:35;100351.22;;;28.03;55.76
63395;BME280;49531;-34.520;150.798;2024-01-30T06:55:02;100353.47;;;28.01;55.67
63395;BME280;49531;-34.520;150.798;2024-01-30T06:57:30;100350.28;;;27.99;55.74
63395;BME280;49531;-34.520;150.798;2024-01-30T06:59:57;100347.53;;;27.99;55.80
63395;BME280;49531;-34.520;150.798;2024-01-30T07:02:24;100349.94;;;27.92;55.80
63395;BME280;49531;-34.520;150.798;2024-01-30T07:04:51;100347.66;;;27.94;55.68
63395;BME280;49531;-34.520;150.798;2024-01-30T07:07:18;100349.28;;;27.95;55.83
63395;BME280;49531;-34.520;150.798;2024-01-30T07:09:45;100340.88;;;27.91;55.64
63395;BME280;49531;-34.520;150.798;2024-01-30T07:12:13;100335.50;;;27.77;56.08
63395;BME280;49531;-34.520;150.798;2024-01-30T07:14:40;100330.50;;;27.79;56.12
63395;BME280;49531;-34.520;150.798;2024-01-30T07:17:08;100346.03;;;27.84;55.70
63395;BME280;49531;-34.520;150.798;2024-01-30T07:19:35;100341.97;;;27.81;55.98
63395;BME280;49531;-34.520;150.798;2024-01-30T07:22:02;100336.63;;;27.76;56.17
63395;BME280;49531;-34.520;150.798;2024-01-30T07:24:29;100333.53;;;27.69;56.21
63395;BME280;49531;-34.520;150.798;2024-01-30T07:26:56;100341.59;;;27.66;56.58
63395;BME280;49531;-34.520;150.798;2024-01-30T07:29:23;100343.22;;;27.67;56.43
63395;BME280;49531;-34.520;150.798;2024-01-30T07:31:50;100345.16;;;27.66;56.38
63395;BME280;49531;-34.520;150.798;2024-01-30T07:34:18;100344.84;;;27.59;56.61
63395;BME280;49531;-34.520;150.798;2024-01-30T07:36:45;100349.00;;;27.56;56.87
63395;BME280;49531;-34.520;150.798;2024-01-30T07:39:13;100350.56;;;27.49;56.89
63395;BME280;49531;-34.520;150.798;2024-01-30T07:41:40;100346.53;;;27.46;56.90
63395;BME280;49531;-34.520;150.798;2024-01-30T07:44:07;100351.38;;;27.49;56.87
63395;BME280;49531;-34.520;150.798;2024-01-30T07:46:34;100350.88;;;27.47;57.02
63395;BME280;49531;-34.520;150.798;2024-01-30T07:49:01;100358.94;;;27.44;56.88
63395;BME280;49531;-34.520;150.798;2024-01-30T07:51:28;100352.31;;;27.45;57.07
63395;BME280;49531;-34.520;150.798;2024-01-30T07:53:58;100360.06;;;27.43;56.92
63395;BME280;49531;-34.520;150.798;2024-01-30T07:56:25;100360.38;;;27.41;57.18
63395;BME280;49531;-34.520;150.798;2024-01-30T07:58:52;100355.09;;;27.53;56.96
63395;BME280;49531;-34.520;150.798;2024-01-30T08:01:22;100357.13;;;27.70;56.41
63395;BME280;49531;-34.520;150.798;2024-01-30T08:03:49;100359.44;;;27.85;56.19
63395;BME280;49531;-34.520;150.798;2024-01-30T08:06:17;100361.72;;;27.92;55.95
63395;BME280;49531;-34.520;150.798;2024-01-30T08:08:44;100359.47;;;28.03;55.86
63395;BME280;49531;-34.520;150.798;2024-01-30T08:11:11;100363.50;;;28.05;55.42
63395;BME280;49531;-34.520;150.798;2024-01-30T08:13:39;100362.38;;;28.06;55.77
63395;BME280;49531;-34.520;150.798;2024-01-30T08:16:06;100359.66;;;28.15;55.30
63395;BME280;49531;-34.520;150.798;2024-01-30T08:18:33;100367.41;;;28.13;55.49
63395;BME280;49531;-34.520;150.798;2024-01-30T08:21:00;100369.19;;;28.17;55.45
63395;BME280;49531;-34.520;150.798;2024-01-30T08:23:28;100374.88;;;28.21;55.35
63395;BME280;49531;-34.520;150.798;2024-01-30T08:25:55;100365.50;;;28.22;55.25
63395;BME280;49531;-34.520;150.798;2024-01-30T08:28:22;100361.31;;;28.25;55.16
63395;BME280;49531;-34.520;150.798;2024-01-30T08:30:49;100369.72;;;28.28;55.08
63395;BME280;49531;-34.520;150.798;2024-01-30T08:33:16;100379.09;;;28.27;55.10
63395;BME280;49531;-34.520;150.798;2024-01-30T08:35:43;100369.72;;;28.28;55.15
63395;BME280;49531;-34.520;150.798;2024-01-30T08:38:10;100375.69;;;28.30;54.98
63395;BME280;49531;-34.520;150.798;2024-01-30T08:40:38;100380.06;;;28.31;55.28
63395;BME280;49531;-34.520;150.798;2024-01-30T08:43:05;100373.44;;;28.32;55.10
63395;BME280;49531;-34.520;150.798;2024-01-30T08:45:32;100367.16;;;28.32;55.25
63395;BME280;49531;-34.520;150.798;2024-01-30T08:48:00;100373.44;;;28.32;54.99
63395;BME280;49531;-34.520;150.798;2024-01-30T08:50:27;100365.22;;;28.32;55.17
63395;BME280;49531;-34.520;150.798;2024-01-30T08:52:54;100367.94;;;28.32;55.07
63395;BME280;49531;-34.520;150.798;2024-01-30T08:55:21;100373.13;;;28.34;55.10
63395;BME280;49531;-34.520;150.798;2024-01-30T08:57:48;100367.63;;;28.34;55.04
63395;BME280;49531;-34.520;150.798;2024-01-30T09:00:15;100362.63;;;28.36;55.14
63395;BME280;49531;-34.520;150.798;2024-01-30T09:02:43;100369.88;;;28.32;55.33
63395;BME280;49531;-34.520;150.798;2024-01-30T09:05:10;100361.97;;;28.30;55.31
63395;BME280;49531;-34.520;150.798;2024-01-30T09:07:37;100372.16;;;28.30;55.30
63395;BME280;49531;-34.520;150.798;2024-01-30T09:10:05;100369.41;;;28.30;55.44
63395;BME280;49531;-34.520;150.798;2024-01-30T09:12:32;100369.09;;;28.31;55.29
63395;BME280;49531;-34.520;150.798;2024-01-30T09:14:59;100369.09;;;28.31;55.47
63395;BME280;49531;-34.520;150.798;2024-01-30T09:17:26;100369.09;;;28.31;55.38
63395;BME280;49531;-34.520;150.798;2024-01-30T09:19:53;100359.72;;;28.32;55.34
63395;BME280;49531;-34.520;150.798;2024-01-30T09:22:20;100359.72;;;28.32;55.19
63395;BME280;49531;-34.520;150.798;2024-01-30T09:24:47;100363.91;;;28.30;55.39
63395;BME280;49531;-34.520;150.798;2024-01-30T09:27:15;100356.47;;;28.30;55.47
63395;BME280;49531;-34.520;150.798;2024-01-30T09:29:42;100367.47;;;28.30;55.44
63395;BME280;49531;-34.520;150.798;2024-01-30T09:32:09;100381.69;;;28.32;55.11
63395;BME280;49531;-34.520;150.798;2024-01-30T09:34:36;100369.88;;;28.32;55.41
63395;BME280;49531;-34.520;150.798;2024-01-30T09:37:03;100368.28;;;28.31;55.18
63395;BME280;49531;-34.520;150.798;2024-01-30T09:39:30;100368.59;;;28.29;55.41
63395;BME280;49531;-34.520;150.798;2024-01-30T09:42:34;100369.09;;;28.31;55.39
63395;BME280;49531;-34.520;150.798;2024-01-30T09:45:05;100378.94;;;28.32;55.41
63395;BME280;49531;-34.520;150.798;2024-01-30T09:47:45;100380.06;;;28.31;55.26
63395;BME280;49531;-34.520;150.798;2024-01-30T09:50:17;100370.53;;;28.29;55.53
63395;BME280;49531;-34.520;150.798;2024-01-30T09:52:48;100387.81;;;28.29;55.39
63395;BME280;49531;-34.520;150.798;2024-01-30T09:55:15;100383.94;;;28.30;55.39
63395;BME280;49531;-34.520;150.798;2024-01-30T09:57:42;100380.88;;;28.32;55.39
63395;BME280;49531;-34.520;150.798;2024-01-30T10:00:10;100376.19;;;28.32;55.29
63395;BME280;49531;-34.520;150.798;2024-01-30T10:02:38;100378.44;;;28.30;55.49
63395;BME280;49531;-34.520;150.798;2024-01-30T10:05:05;100386.69;;;28.30;55.49
63395;BME280;49531;-34.520;150.798;2024-01-30T10:07:32;100391.06;;;28.31;55.22
63395;BME280;49531;-34.520;150.798;2024-01-30T10:10:00;100387.50;;;28.31;55.44
63395;BME280;49531;-34.520;150.798;2024-01-30T10:12:29;100388.63;;;28.30;55.34
63395;BME280;49531;-34.520;150.798;2024-01-30T10:14:57;100392.19;;;28.30;55.35
63395;BME280;49531;-34.520;150.798;2024-01-30T10:17:25;100394.44;;;28.28;55.33
63395;BME280;49531;-34.520;150.798;2024-01-30T10:19:53;100379.72;;;28.24;55.46
63395;BME280;49531;-34.520;150.798;2024-01-30T10:22:20;100385.22;;;28.24;55.58
63395;BME280;49531;-34.520;150.798;2024-01-30T10:24:48;100379.25;;;28.22;55.46
63395;BME280;49531;-34.520;150.798;2024-01-30T10:27:16;100379.25;;;28.22;55.65
63395;BME280;49531;-34.520;150.798;2024-01-30T10:29:43;100375.69;;;28.21;55.54
63395;BME280;49531;-34.520;150.798;2024-01-30T10:32:10;100378.44;;;28.21;55.73
63395;BME280;49531;-34.520;150.798;2024-01-30T10:34:37;100374.34;;;28.19;55.68
63395;BME280;49531;-34.520;150.798;2024-01-30T10:37:07;100382.59;;;28.19;55.70
63395;BME280;49531;-34.520;150.798;2024-01-30T10:39:39;100388.09;;;28.19;55.62
63395;BME280;49531;-34.520;150.798;2024-01-30T10:42:15;100382.09;;;28.17;55.60
63395;BME280;49531;-34.520;150.798;2024-01-30T10:47:29;100380.81;;;28.14;55.81
63395;BME280;49531;-34.520;150.798;2024-01-30T10:49:56;100385.50;;;28.14;55.88
63395;BME280;49531;-34.520;150.798;2024-01-30T10:52:24;100386.31;;;28.14;56.05
63395;BME280;49531;-34.520;150.798;2024-01-30T10:54:53;100389.38;;;28.13;55.93
63395;BME280;49531;-34.520;150.798;2024-01-30T10:57:23;100389.19;;;28.09;55.97
63395;BME280;49531;-34.520;150.798;2024-01-30T10:59:57;100389.50;;;28.08;55.95
63395;BME280;49531;-34.520;150.798;2024-01-30T11:02:25;100392.56;;;28.06;55.94
63395;BME280;49531;-34.520;150.798;2024-01-30T11:04:59;100393.69;;;28.05;56.11
63395;BME280;49531;-34.520;150.798;2024-01-30T11:07:29;100398.38;;;28.05;56.01
63395;BME280;49531;-34.520;150.798;2024-01-30T11:12:30;100394.66;;;28.01;56.20
63395;BME280;49531;-34.520;150.798;2024-01-30T11:15:10;100401.28;;;28.00;56.12
63395;BME280;49531;-34.520;150.798;2024-01-30T11:22:46;100400.81;;;27.98;56.10
63395;BME280;49531;-34.520;150.798;2024-01-30T11:25:15;100398.72;;;27.95;56.26
63395;BME280;49531;-34.520;150.798;2024-01-30T11:27:43;100400.81;;;27.98;56.18
63395;BME280;49531;-34.520;150.798;2024-01-30T11:30:20;100397.25;;;27.97;56.17
63395;BME280;49531;-34.520;150.798;2024-01-30T11:35:41;100409.88;;;27.98;56.24
63395;BME280;49531;-34.520;150.798;2024-01-30T11:38:14;100408.25;;;27.97;56.27
63395;BME280;49531;-34.520;150.798;2024-01-30T11:40:41;100407.44;;;27.97;56.30
63395;BME280;49531;-34.520;150.798;2024-01-30T11:43:09;100409.06;;;27.98;56.46
63395;BME280;49531;-34.520;150.798;2024-01-30T11:45:38;100412.13;;;27.96;56.26
63395;BME280;49531;-34.520;150.798;2024-01-30T11:48:05;100406.63;;;27.96;56.33
63395;BME280;49531;-34.520;150.798;2024-01-30T11:50:34;100405.81;;;27.96;56.40
63395;BME280;49531;-34.520;150.798;2024-01-30T11:53:01;100405.81;;;27.96;56.28
63395;BME280;49531;-34.520;150.798;2024-01-30T11:55:32;100405.31;;;27.94;56.26
63395;BME280;49531;-34.520;150.798;2024-01-30T11:58:03;100414.38;;;27.94;56.39
63395;BME280;49531;-34.520;150.798;2024-01-30T12:00:31;100413.56;;;27.94;56.36
63395;BME280;49531;-34.520;150.798;2024-01-30T12:02:59;100410.31;;;27.92;56.49
63395;BME280;49531;-34.520;150.798;2024-01-30T12:05:27;100407.56;;;27.92;56.49
63395;BME280;49531;-34.520;150.798;2024-01-30T12:07:54;100408.69;;;27.91;56.56
63395;BME280;49531;-34.520;150.798;2024-01-30T12:10:25;100409.50;;;27.91;56.47
63395;BME280;49531;-34.520;150.798;2024-01-30T12:12:53;100404.34;;;27.89;56.60
63395;BME280;49531;-34.520;150.798;2024-01-30T12:15:22;100401.59;;;27.89;56.42
63395;BME280;49531;-34.520;150.798;2024-01-30T12:17:49;100398.34;;;27.87;56.59
63395;BME280;49531;-34.520;150.798;2024-01-30T12:20:20;100392.69;;;27.84;56.67
63395;BME280;49531;-34.520;150.798;2024-01-30T12:22:48;100390.44;;;27.86;56.67
63395;BME280;49531;-34.520;150.798;2024-01-30T12:25:17;100392.50;;;27.80;56.79
63395;BME280;49531;-34.520;150.798;2024-01-30T12:27:50;100402.38;;;27.81;56.80
63395;BME280;49531;-34.520;150.798;2024-01-30T12:30:18;100391.69;;;27.80;56.83
63395;BME280;49531;-34.520;150.798;2024-01-30T12:32:47;100384.91;;;27.77;56.94
63395;BME280;49531;-34.520;150.798;2024-01-30T12:35:17;100389.28;;;27.78;56.87
63395;BME280;49531;-34.520;150.798;2024-01-30T12:37:45;100389.59;;;27.77;56.95